Andrews, North Carolina
Current Conditions -  °F | °C
As of 9:15 PM on Sunday 25 Jan 2015 (Local Time) from KRHP Reporting Station
Overcast Overcast  
Wind Chill:   Ceiling: 4400
Heat Index:   Visibility: 10mi
Dew Point:   Wind: 0mph
Humidity: 77%   Direction: NA
Pressure: 29.74"   Gusts: NA
Location:  35.2°N, 83.82°W
Report Text: KRHP 260215Z AUTO 00000KT 10SM OVC044 07/03 A2974 RMK AO2 T00680030
Loading
Personal Weather Stations






























Interactive Weather Map New forecast layout! Learn more

10-Day Weather Forecast

Advertisements
Track Severe Weather on mobile